Time;durP1;ratioP1;P1;durP2;ratioP2;P2;SDS_P1;SDS_P2;PMS_P1;PMS_P2;Temp;Humidity;BMP_temperature;BMP_pressure;BME280_temperature;BME280_humidity;BME280_pressure;Samples;Min_cycle;Max_cycle;Signal;HPM_P1;HPM_P2
2021/06/09 00:00:15;;;;;;;11.20;9.77;;;;;;;14.67;81.31;102037.34;1053055;28;20502;-81
2021/06/09 00:00:47;;;;;;;10.93;9.82;;;;;;;14.73;81.01;102027.03;1056797;28;20059;-81
2021/06/09 00:01:20;;;;;;;12.50;9.30;;;;;;;14.75;80.77;102030.56;1052656;28;20439;-81
2021/06/09 00:01:51;;;;;;;10.13;9.23;;;;;;;14.66;81.57;102031.28;1049034;28;20525;-82
2021/06/09 00:02:23;;;;;;;9.80;8.80;;;;;;;14.66;81.08;102025.19;1052524;28;20056;-81
2021/06/09 00:02:55;;;;;;;11.15;9.05;;;;;;;14.69;80.44;102027.81;1048798;28;20057;-82
2021/06/09 00:03:27;;;;;;;11.00;9.45;;;;;;;14.64;80.85;102030.38;1049033;28;20507;-82
2021/06/09 00:03:58;;;;;;;10.77;9.68;;;;;;;14.63;80.92;102028.59;1052764;28;20063;-82
2021/06/09 00:04:30;;;;;;;10.65;9.65;;;;;;;14.62;80.95;102032.06;1053082;28;20048;-81
2021/06/09 00:05:04;;;;;;;11.18;10.18;;;;;;;14.58;81.31;102033.75;1052534;28;20423;-82
2021/06/09 00:05:35;;;;;;;10.90;9.90;;;;;;;14.53;81.55;102030.19;1049167;28;20058;-82
2021/06/09 00:06:07;;;;;;;10.77;9.75;;;;;;;14.51;81.81;102024.06;1052666;28;20048;-82
2021/06/09 00:06:39;;;;;;;10.80;9.70;;;;;;;14.52;81.62;102036.25;1049246;28;20055;-81
2021/06/09 00:07:11;;;;;;;11.75;10.55;;;;;;;14.58;81.33;102030.28;1048620;28;20056;-81
2021/06/09 00:07:42;;;;;;;10.90;9.73;;;;;;;14.55;81.56;102031.06;1052632;28;20048;-81
2021/06/09 00:08:15;;;;;;;11.35;10.15;;;;;;;14.51;81.74;102031.00;1048612;28;20076;-81
2021/06/09 00:08:46;;;;;;;11.32;10.32;;;;;;;14.42;82.00;102026.47;1053093;28;20048;-81
2021/06/09 00:09:17;;;;;;;12.10;9.93;;;;;;;14.45;81.90;102029.13;1056655;28;20043;-81
2021/06/09 00:09:49;;;;;;;10.35;9.32;;;;;;;14.42;82.24;102023.88;1056817;28;20047;-82
2021/06/09 00:10:20;;;;;;;10.13;9.13;;;;;;;14.43;82.36;102028.22;1057334;27;20091;-81
2021/06/09 00:10:56;;;;;;;13.60;9.45;;;;;;;14.45;81.43;102029.13;1056698;28;20080;-82
2021/06/09 00:11:27;;;;;;;11.23;9.30;;;;;;;14.53;81.45;102029.31;1055812;28;20487;-82
2021/06/09 00:11:59;;;;;;;12.23;9.80;;;;;;;14.54;81.16;102031.06;1052475;28;20044;-82
2021/06/09 00:12:32;;;;;;;12.25;10.98;;;;;;;14.52;81.33;102036.25;1057844;27;20491;-82
2021/06/09 00:13:04;;;;;;;11.52;10.05;;;;;;;14.48;81.40;102026.63;1056655;28;20055;-82
2021/06/09 00:13:36;;;;;;;10.30;9.27;;;;;;;14.40;81.72;102024.69;1056821;28;20093;-82
2021/06/09 00:14:08;;;;;;;10.55;8.27;;;;;;;14.35;82.36;102026.31;1051663;28;20043;-81
2021/06/09 00:14:40;;;;;;;11.07;9.98;;;;;;;14.32;82.15;102025.41;1048953;28;20067;-81
2021/06/09 00:15:14;;;;;;;10.45;9.45;;;;;;;14.37;82.41;102024.63;1052420;28;20044;-82
2021/06/09 00:15:46;;;;;;;10.63;9.50;;;;;;;14.39;81.98;102023.81;1049170;28;20049;-81
2021/06/09 00:16:20;;;;;;;11.43;10.32;;;;;;;14.43;81.83;102028.22;1049148;28;20482;-82
2021/06/09 00:16:51;;;;;;;9.65;8.75;;;;;;;14.48;81.83;102031.81;1052580;28;20130;-82
2021/06/09 00:17:23;;;;;;;12.77;10.60;;;;;;;14.48;81.24;102034.44;1049173;28;20056;-81
2021/06/09 00:17:55;;;;;;;11.38;10.27;;;;;;;14.53;81.03;102035.41;1053297;28;20117;-81
2021/06/09 00:18:26;;;;;;;11.57;9.70;;;;;;;14.50;81.41;102029.25;1056769;28;20055;-81
2021/06/09 00:18:58;;;;;;;11.68;10.38;;;;;;;14.51;81.67;102031.88;1056901;28;20055;-81
2021/06/09 00:19:29;;;;;;;15.93;10.60;;;;;;;14.48;81.92;102037.03;1056689;28;20134;-82
2021/06/09 00:20:01;;;;;;;11.00;9.85;;;;;;;14.45;81.88;102033.44;1052451;28;20067;-82
2021/06/09 00:20:32;;;;;;;10.77;9.73;;;;;;;14.46;81.57;102041.28;1048533;28;20056;-81
2021/06/09 00:21:04;;;;;;;12.43;9.82;;;;;;;14.41;81.83;102031.63;1048672;28;20053;-81
2021/06/09 00:21:36;;;;;;;10.95;9.98;;;;;;;14.39;81.96;102029.00;1048784;28;20056;-82
2021/06/09 00:22:07;;;;;;;14.63;10.65;;;;;;;14.37;82.28;102025.50;1053018;28;20054;-81
2021/06/09 00:22:40;;;;;;;12.18;10.23;;;;;;;14.36;81.73;102035.91;1052562;28;20048;-82
2021/06/09 00:23:16;;;;;;;10.40;9.48;;;;;;;14.32;82.09;102030.63;1052254;28;20052;-82
2021/06/09 00:23:48;;;;;;;10.77;8.70;;;;;;;14.28;81.90;102039.22;1052292;28;20040;-82
2021/06/09 00:24:20;;;;;;;10.93;9.82;;;;;;;14.24;82.54;102040.03;1056151;28;20044;-82
2021/06/09 00:24:51;;;;;;;12.80;9.50;;;;;;;14.20;82.51;102032.13;1056575;28;20055;-82
2021/06/09 00:25:23;;;;;;;11.38;9.65;;;;;;;14.20;82.82;102029.53;1052601;28;20059;-81
2021/06/09 00:25:57;;;;;;;10.65;9.65;;;;;;;14.19;82.64;102033.84;1052321;28;20051;-82
2021/06/09 00:26:28;;;;;;;17.67;10.40;;;;;;;14.20;82.73;102039.94;1053362;28;20408;-83
2021/06/09 00:27:00;;;;;;;10.38;9.38;;;;;;;14.18;82.54;102039.91;1056664;28;20052;-82
2021/06/09 00:27:31;;;;;;;10.95;9.95;;;;;;;14.21;82.57;102032.16;1056869;28;20055;-82
2021/06/09 00:28:05;;;;;;;11.73;9.63;;;;;;;14.16;82.73;102031.19;1056845;28;20145;-82
2021/06/09 00:28:37;;;;;;;14.05;9.35;;;;;;;14.19;82.71;102038.19;1056806;28;20047;-82
2021/06/09 00:29:09;;;;;;;16.83;10.25;;;;;;;14.15;83.09;102036.38;1052558;28;20416;-82
2021/06/09 00:29:41;;;;;;;10.40;9.27;;;;;;;14.11;83.38;102038.03;1048415;28;20051;-82
2021/06/09 00:30:16;;;;;;;11.77;10.23;;;;;;;14.08;83.40;102032.78;1048803;28;20049;-82
2021/06/09 00:30:48;;;;;;;10.10;9.05;;;;;;;14.06;83.40;102043.13;1049486;28;20381;-82
2021/06/09 00:31:20;;;;;;;11.35;10.27;;;;;;;14.09;83.04;102038.84;1052508;28;20048;-82
2021/06/09 00:31:51;;;;;;;10.40;9.50;;;;;;;14.09;83.60;102036.25;1053525;28;20121;-81
2021/06/09 00:32:23;;;;;;;11.52;9.30;;;;;;;14.13;82.44;102036.34;1052411;28;20047;-81
2021/06/09 00:32:56;;;;;;;10.80;9.70;;;;;;;14.19;82.64;102043.41;1052489;28;20052;-82
2021/06/09 00:33:28;;;;;;;11.32;10.05;;;;;;;14.23;82.43;102037.38;1052177;28;20052;-82
2021/06/09 00:33:59;;;;;;;10.85;9.90;;;;;;;14.10;83.10;102040.59;1050523;28;20045;-82
2021/06/09 00:34:31;;;;;;;9.75;8.85;;;;;;;14.12;83.06;102037.16;1052389;28;20056;-82
2021/06/09 00:35:04;;;;;;;10.65;9.55;;;;;;;14.17;82.47;102042.47;1052593;28;20114;-82
2021/06/09 00:35:37;;;;;;;11.48;10.27;;;;;;;14.21;82.14;102041.69;1049020;28;20049;-82
2021/06/09 00:36:09;;;;;;;10.27;9.38;;;;;;;14.23;81.83;102035.66;1048895;28;20056;-82
2021/06/09 00:36:40;;;;;;;10.45;8.82;;;;;;;14.18;82.19;102039.00;1052546;28;20044;-82
2021/06/09 00:37:12;;;;;;;10.57;9.32;;;;;;;14.11;82.80;102039.75;1048161;28;20040;-82
2021/06/09 00:37:43;;;;;;;10.75;9.65;;;;;;;13.97;83.21;102042.97;1048885;28;20056;-82
2021/06/09 00:38:16;;;;;;;10.15;9.18;;;;;;;14.03;82.88;102037.88;1048848;28;20052;-82
2021/06/09 00:38:49;;;;;;;10.32;8.02;;;;;;;14.05;82.92;102037.91;1048996;28;20420;-82
2021/06/09 00:39:20;;;;;;;11.23;10.05;;;;;;;14.09;82.94;102029.31;1052486;28;20059;-82
2021/06/09 00:39:52;;;;;;;11.02;9.82;;;;;;;14.13;82.50;102030.28;1053583;28;20047;-82
2021/06/09 00:40:24;;;;;;;10.13;9.13;;;;;;;14.05;82.74;102036.19;1056502;28;20043;-82
2021/06/09 00:40:58;;;;;;;9.75;8.85;;;;;;;13.97;83.33;102027.34;1056578;28;20051;-82
2021/06/09 00:41:29;;;;;;;11.18;9.98;;;;;;;13.92;83.05;102036.78;1056672;28;20452;-82
2021/06/09 00:42:01;;;;;;;11.75;10.48;;;;;;;13.98;83.45;102039.50;1052248;28;20048;-82
2021/06/09 00:42:33;;;;;;;9.68;8.77;;;;;;;14.01;83.40;102031.78;1048284;28;20048;-81
2021/06/09 00:43:18;;;;;;;10.10;9.05;;;;;;;14.00;83.34;102043.00;1048369;28;20059;-81
2021/06/09 00:43:51;;;;;;;11.65;9.75;;;;;;;13.90;83.94;102043.69;1046379;28;20045;-82
2021/06/09 00:44:22;;;;;;;12.40;10.40;;;;;;;13.88;83.74;102034.97;1046545;28;20048;-81
2021/06/09 00:44:54;;;;;;;12.27;9.80;;;;;;;13.94;82.94;102042.88;1046537;28;20048;-81
2021/06/09 00:45:25;;;;;;;9.55;8.70;;;;;;;13.92;83.08;102035.91;1048790;28;20059;-82
2021/06/09 00:46:03;;;;;;;10.98;9.75;;;;;;;13.90;83.17;102035.03;1052797;28;20052;-82
2021/06/09 00:46:37;;;;;;;11.13;10.02;;;;;;;13.96;82.65;102042.94;1056613;28;20052;-81
2021/06/09 00:47:09;;;;;;;12.05;10.85;;;;;;;13.89;83.19;102043.63;1056589;28;20475;-82
2021/06/09 00:47:41;;;;;;;10.75;9.13;;;;;;;13.90;83.57;102045.41;1052731;28;20044;-82
2021/06/09 00:48:14;;;;;;;12.32;9.35;;;;;;;13.85;83.58;102034.91;1052506;28;20048;-82
2021/06/09 00:48:45;;;;;;;12.50;9.48;;;;;;;13.81;83.60;102043.50;1052880;28;20044;-82
2021/06/09 00:49:17;;;;;;;10.25;9.35;;;;;;;13.88;83.15;102040.16;1056656;28;20505;-82
2021/06/09 00:49:49;;;;;;;10.38;9.48;;;;;;;13.89;83.56;102041.91;1056592;28;20051;-80
2021/06/09 00:50:21;;;;;;;12.18;9.90;;;;;;;13.93;82.86;102038.53;1056537;28;20410;-82
2021/06/09 00:51:00;;;;;;;12.27;9.98;;;;;;;13.88;83.14;102039.28;1056565;28;20040;-82
2021/06/09 00:51:33;;;;;;;11.80;10.55;;;;;;;13.85;83.19;102042.72;1052614;28;20052;-82
2021/06/09 00:52:05;;;;;;;15.68;10.65;;;;;;;13.87;83.09;102040.13;1054175;28;20452;-81
2021/06/09 00:52:36;;;;;;;16.17;12.27;;;;;;;13.80;83.87;102039.16;1056597;28;20059;-82
2021/06/09 00:54:01;;;;;;;11.93;9.77;;;;;;;13.80;83.43;102033.94;1052490;28;20055;-82
2021/06/09 00:54:33;;;;;;;13.05;10.98;;;;;;;13.79;83.69;102045.19;1052546;28;20377;-82
2021/06/09 00:55:05;;;;;;;11.93;10.77;;;;;;;13.79;83.91;102040.88;1054813;28;20415;-82
2021/06/09 00:55:36;;;;;;;12.00;10.73;;;;;;;13.76;83.81;102032.13;1057249;28;20336;-82
2021/06/09 00:56:12;;;;;;;14.10;10.48;;;;;;;13.76;83.64;102035.59;1056980;28;20044;-82
2021/06/09 00:56:44;;;;;;;14.93;10.63;;;;;;;13.78;83.49;102033.91;1056553;28;20055;-81
2021/06/09 00:57:17;;;;;;;12.80;11.45;;;;;;;13.81;83.05;102038.28;1056466;28;20051;-83
2021/06/09 00:57:50;;;;;;;12.55;10.18;;;;;;;13.83;83.35;102041.78;1056667;28;20040;-81
2021/06/09 00:58:24;;;;;;;10.48;9.52;;;;;;;13.83;83.43;102041.78;1056600;28;20113;-83
2021/06/09 00:58:56;;;;;;;11.55;10.35;;;;;;;13.75;83.63;102033.84;1056727;28;20039;-82
2021/06/09 00:59:27;;;;;;;12.00;10.80;;;;;;;13.75;83.63;102043.38;1056561;28;20054;-82
2021/06/09 00:59:58;;;;;;;11.95;10.48;;;;;;;13.75;83.93;102040.75;1051985;28;20048;-82
2021/06/09 01:00:30;;;;;;;12.13;10.98;;;;;;;13.69;83.95;102038.03;1052577;28;20055;-82
2021/06/09 01:01:03;;;;;;;12.43;11.15;;;;;;;13.67;84.31;102042.31;1048777;28;20590;-82
2021/06/09 01:01:35;;;;;;;14.75;10.75;;;;;;;13.72;83.62;102038.09;1052332;28;20044;-82
2021/06/09 01:02:06;;;;;;;13.07;11.05;;;;;;;13.72;83.66;102040.69;1051733;28;20067;-81
2021/06/09 01:02:39;;;;;;;17.50;10.35;;;;;;;13.70;83.89;102038.06;1044148;28;20049;-82
2021/06/09 01:03:11;;;;;;;16.52;11.75;;;;;;;13.74;84.05;102039.03;1042853;28;20046;-81
2021/06/09 01:03:43;;;;;;;12.05;10.93;;;;;;;13.76;83.92;102035.59;1044724;28;20791;-82
2021/06/09 01:04:15;;;;;;;13.23;11.65;;;;;;;13.74;83.98;102036.41;1044845;28;20059;-82
2021/06/09 01:04:46;;;;;;;11.60;10.50;;;;;;;13.77;83.54;102044.25;1044768;28;20071;-82
2021/06/09 01:05:18;;;;;;;13.80;10.57;;;;;;;13.74;83.52;102041.63;1044720;28;20048;-82
2021/06/09 01:05:50;;;;;;;13.20;11.38;;;;;;;13.72;83.88;102036.34;1048696;28;20045;-82
2021/06/09 01:06:21;;;;;;;15.98;10.93;;;;;;;13.66;84.21;102037.97;1048710;28;20059;-82
2021/06/09 01:06:53;;;;;;;13.55;10.57;;;;;;;13.70;83.78;102039.78;1052980;28;20082;-82
2021/06/09 01:07:24;;;;;;;11.45;10.25;;;;;;;13.69;83.99;102038.03;1052423;28;20094;-82
2021/06/09 01:08:00;;;;;;;12.15;10.35;;;;;;;13.68;83.84;102042.38;1052731;28;20526;-83
2021/06/09 01:08:36;;;;;;;14.35;10.40;;;;;;;13.75;83.37;102039.03;1056658;28;20063;-82
2021/06/09 01:09:08;;;;;;;14.45;9.80;;;;;;;13.73;83.31;102042.47;1052367;28;20066;-82
2021/06/09 01:09:39;;;;;;;16.00;11.65;;;;;;;13.71;83.71;102036.34;1049278;28;20170;-80
2021/06/09 01:10:11;;;;;;;13.75;11.40;;;;;;;13.66;83.79;102036.22;1049496;28;20044;-81
2021/06/09 01:10:45;;;;;;;12.20;10.88;;;;;;;13.66;84.22;102043.16;1049005;28;20045;-82
2021/06/09 01:11:22;;;;;;;12.45;11.30;;;;;;;13.64;83.94;102035.34;1055415;28;20043;-82
2021/06/09 01:11:55;;;;;;;12.07;10.90;;;;;;;13.64;84.31;102037.94;1056485;28;20054;-82
2021/06/09 01:12:27;;;;;;;12.07;10.90;;;;;;;13.65;83.90;102042.28;1054176;28;20052;-81
2021/06/09 01:12:59;;;;;;;12.10;10.77;;;;;;;13.69;83.66;102038.91;1056654;28;20086;-82
2021/06/09 01:13:31;;;;;;;16.95;12.30;;;;;;;13.69;83.33;102036.31;1056744;28;20048;-82
2021/06/09 01:14:03;;;;;;;13.25;11.85;;;;;;;13.71;83.73;102041.53;1056503;28;20055;-82
2021/06/09 01:14:35;;;;;;;11.65;10.43;;;;;;;13.70;83.71;102030.25;1056860;28;20047;-82
2021/06/09 01:15:07;;;;;;;11.43;10.25;;;;;;;13.73;83.26;102035.53;1056506;28;20058;-82
2021/06/09 01:15:40;;;;;;;13.40;12.00;;;;;;;13.78;83.41;102035.59;1052443;28;20048;-81
2021/06/09 01:16:12;;;;;;;13.68;12.35;;;;;;;13.68;83.93;102034.56;1052359;28;20048;-82
2021/06/09 01:16:44;;;;;;;13.82;12.43;;;;;;;13.65;83.91;102034.47;1057485;28;20043;-82
2021/06/09 01:17:16;;;;;;;13.70;12.02;;;;;;;13.62;84.77;102039.63;1061673;27;20054;-82
2021/06/09 01:17:47;;;;;;;13.65;12.25;;;;;;;13.64;84.36;102037.06;1060831;27;20451;-82
2021/06/09 01:18:20;;;;;;;14.02;11.25;;;;;;;13.67;84.12;102039.72;1060172;27;20047;-82
2021/06/09 01:18:53;;;;;;;12.55;11.25;;;;;;;13.67;83.91;102026.72;1052541;28;20052;-82
2021/06/09 01:19:24;;;;;;;16.98;13.20;;;;;;;13.73;83.79;102034.66;1048989;28;20044;-82
2021/06/09 01:19:55;;;;;;;14.43;11.48;;;;;;;13.73;83.99;102029.47;1052426;28;20048;-81
2021/06/09 01:20:28;;;;;;;13.15;11.73;;;;;;;13.69;84.06;102038.03;1052832;28;20044;-82
2021/06/09 01:20:59;;;;;;;14.05;12.65;;;;;;;13.70;83.71;102029.38;1056639;28;20093;-81
2021/06/09 01:21:32;;;;;;;12.80;11.50;;;;;;;13.64;84.13;102037.06;1056396;28;20039;-82
2021/06/09 01:22:04;;;;;;;19.90;11.60;;;;;;;13.63;84.40;102030.97;1056680;28;20055;-82
2021/06/09 01:22:36;;;;;;;15.25;12.82;;;;;;;13.66;84.11;102031.03;1052076;28;20079;-82
2021/06/09 01:23:08;;;;;;;13.20;11.82;;;;;;;13.69;83.85;102027.63;1048869;28;20492;-81
2021/06/09 01:23:40;;;;;;;15.68;11.10;;;;;;;13.68;83.98;102031.09;1044251;28;20053;-81
2021/06/09 01:24:12;;;;;;;18.17;12.77;;;;;;;13.62;83.92;102025.75;1050512;28;20040;-82
2021/06/09 01:24:43;;;;;;;12.30;11.02;;;;;;;13.65;83.62;102028.41;1053701;28;20047;-82
2021/06/09 01:25:19;;;;;;;13.63;12.13;;;;;;;13.65;83.91;102029.28;1053063;28;20455;-82
2021/06/09 01:25:51;;;;;;;12.00;10.70;;;;;;;13.66;83.16;102028.44;1056137;28;20407;-82
2021/06/09 01:26:25;;;;;;;16.83;11.52;;;;;;;13.64;83.52;102026.66;1052659;28;20048;-81
2021/06/09 01:26:57;;;;;;;16.88;12.35;;;;;;;13.58;84.15;102031.72;1053734;28;20059;-82
2021/06/09 01:27:28;;;;;;;17.92;11.35;;;;;;;13.45;84.82;102030.59;1052381;28;20055;-81
2021/06/09 01:28:01;;;;;;;14.32;11.35;;;;;;;13.44;84.69;102026.22;1049081;28;20424;-81
2021/06/09 01:28:34;;;;;;;13.80;12.07;;;;;;;13.46;84.24;102028.00;1048090;28;20523;-82
2021/06/09 01:29:08;;;;;;;13.15;11.75;;;;;;;13.48;84.39;102025.44;1048186;28;20058;-82
2021/06/09 01:29:40;;;;;;;12.38;11.10;;;;;;;13.50;83.93;102028.94;1044938;28;20053;-82
2021/06/09 01:30:12;;;;;;;11.80;10.63;;;;;;;13.47;84.27;102031.50;1049257;28;20075;-82
2021/06/09 01:30:45;;;;;;;15.50;12.20;;;;;;;13.45;84.54;102026.25;1055411;28;20047;-81
2021/06/09 01:31:17;;;;;;;11.70;10.57;;;;;;;13.45;84.37;102020.19;1053417;28;20055;-81
2021/06/09 01:31:49;;;;;;;14.43;11.20;;;;;;;13.44;84.69;102034.91;1052354;28;20117;-80
2021/06/09 01:32:20;;;;;;;12.40;11.15;;;;;;;13.44;84.36;102037.50;1047983;28;20048;-82
2021/06/09 01:32:53;;;;;;;12.85;11.45;;;;;;;13.43;84.75;102032.25;1048636;28;20530;-82
2021/06/09 01:33:24;;;;;;;14.60;11.85;;;;;;;13.42;84.73;102023.59;1052996;28;20055;-82
2021/06/09 01:34:03;;;;;;;13.27;11.88;;;;;;;13.41;84.33;102027.03;1052986;28;20044;-82
2021/06/09 01:34:35;;;;;;;12.93;11.45;;;;;;;13.41;84.89;102037.44;1056598;28;20051;-82
2021/06/09 01:35:08;;;;;;;12.82;11.60;;;;;;;13.43;84.38;102032.25;1056355;28;20054;-82
2021/06/09 01:35:40;;;;;;;13.07;11.43;;;;;;;13.45;83.55;102030.59;1052188;28;20048;-81
2021/06/09 01:36:12;;;;;;;14.43;11.70;;;;;;;13.39;84.33;102033.94;1056379;28;20044;-82
2021/06/09 01:36:44;;;;;;;13.15;11.73;;;;;;;13.39;84.47;102030.47;1056707;28;20043;-82
2021/06/09 01:37:17;;;;;;;11.43;9.90;;;;;;;13.39;84.18;102033.06;1056257;28;20510;-82
2021/06/09 01:37:49;;;;;;;15.73;12.30;;;;;;;13.34;84.67;102030.34;1052466;28;20047;-82
2021/06/09 01:38:22;;;;;;;12.85;11.65;;;;;;;13.33;84.74;102033.78;1052355;28;20051;-82
2021/06/09 01:38:54;;;;;;;12.38;11.00;;;;;;;13.35;84.84;102036.41;1053365;28;20051;-82
2021/06/09 01:39:25;;;;;;;14.13;11.65;;;;;;;13.34;84.36;102032.06;1056695;28;20043;-82
2021/06/09 01:39:59;;;;;;;13.93;12.07;;;;;;;13.36;84.59;102028.66;1052129;28;20048;-81
2021/06/09 01:40:31;;;;;;;15.73;12.75;;;;;;;13.36;84.44;102028.66;1052205;28;20074;-82
2021/06/09 01:41:03;;;;;;;19.40;12.27;;;;;;;13.35;85.11;102032.09;1049008;28;20051;-82
2021/06/09 01:41:34;;;;;;;14.32;10.60;;;;;;;13.35;84.73;102026.91;1053085;28;20046;-82
2021/06/09 01:42:06;;;;;;;15.63;11.68;;;;;;;13.33;84.70;102031.19;1052211;28;20044;-82
2021/06/09 01:42:38;;;;;;;12.05;10.77;;;;;;;13.31;84.89;102032.00;1048588;28;20049;-82
2021/06/09 01:43:10;;;;;;;12.93;11.27;;;;;;;13.30;84.92;102028.50;1048103;28;20044;-81
2021/06/09 01:43:42;;;;;;;14.50;12.30;;;;;;;13.27;84.96;102033.63;1044394;28;20045;-82
2021/06/09 01:44:14;;;;;;;13.25;11.85;;;;;;;13.27;84.88;102033.63;1048275;28;20048;-82
2021/06/09 01:44:45;;;;;;;12.18;10.95;;;;;;;13.24;84.79;102029.25;1044907;28;20052;-81
2021/06/09 01:45:20;;;;;;;12.48;11.25;;;;;;;13.30;84.50;102032.84;1048562;28;20055;-82
2021/06/09 01:45:53;;;;;;;12.82;11.45;;;;;;;13.31;85.07;102027.66;1048456;28;20049;-82
2021/06/09 01:46:24;;;;;;;13.65;12.05;;;;;;;13.29;84.85;102026.75;1049973;28;20055;-82
2021/06/09 01:46:56;;;;;;;13.07;11.77;;;;;;;13.28;84.97;102026.75;1050061;28;20519;-82
2021/06/09 01:47:27;;;;;;;14.48;12.05;;;;;;;13.33;84.40;102032.88;1052974;28;20047;-81
2021/06/09 01:48:00;;;;;;;13.35;11.95;;;;;;;13.28;84.44;102027.63;1053249;28;20048;-82
2021/06/09 01:48:31;;;;;;;13.73;12.40;;;;;;;13.24;85.27;102028.38;1049519;28;20052;-81
2021/06/09 01:49:06;;;;;;;17.38;11.75;;;;;;;13.22;84.83;102028.34;1053809;28;20048;-82
2021/06/09 01:49:37;;;;;;;13.35;12.05;;;;;;;13.17;85.39;102027.31;1057205;28;20495;-81
2021/06/09 01:50:12;;;;;;;14.95;13.40;;;;;;;13.20;85.36;102026.50;1057424;28;20612;-82
2021/06/09 01:50:44;;;;;;;16.20;12.63;;;;;;;13.17;85.53;102023.84;1057520;28;20051;-82
2021/06/09 01:51:17;;;;;;;13.35;12.00;;;;;;;13.20;85.19;102029.97;1057328;28;20545;-82
2021/06/09 01:51:48;;;;;;;13.95;12.38;;;;;;;13.21;85.26;102025.69;1057025;28;20044;-81
2021/06/09 01:52:20;;;;;;;13.07;11.75;;;;;;;13.22;85.11;102027.47;1053606;28;20055;-82
2021/06/09 01:52:52;;;;;;;14.13;12.68;;;;;;;13.23;84.86;102029.22;1053210;28;20048;-82
2021/06/09 01:53:23;;;;;;;13.48;11.20;;;;;;;13.21;85.25;102028.28;1048886;28;20404;-82
2021/06/09 01:53:55;;;;;;;14.77;13.02;;;;;;;13.21;85.25;102023.09;1044765;28;20044;-81
2021/06/09 01:54:27;;;;;;;17.42;13.07;;;;;;;13.18;85.24;102028.19;1041323;28;20477;-81
2021/06/09 01:55:00;;;;;;;14.48;12.77;;;;;;;13.21;85.18;102029.16;1043488;28;20056;-82
2021/06/09 01:55:34;;;;;;;13.82;12.35;;;;;;;13.22;85.18;102027.47;1049472;28;20059;-81
2021/06/09 01:56:05;;;;;;;12.77;11.23;;;;;;;13.18;84.92;102025.59;1049635;28;20052;-82
2021/06/09 01:56:37;;;;;;;13.40;11.55;;;;;;;13.18;85.07;102026.47;1054116;28;20056;-82
2021/06/09 01:57:10;;;;;;;14.25;12.52;;;;;;;13.15;85.23;102020.31;1053343;28;20056;-82
2021/06/09 01:57:42;;;;;;;14.70;13.27;;;;;;;13.13;85.66;102019.41;1053134;28;20048;-82
2021/06/09 01:58:14;;;;;;;16.00;12.27;;;;;;;13.11;85.42;102023.72;1051170;28;20468;-81
2021/06/09 01:58:46;;;;;;;15.55;13.95;;;;;;;13.11;85.50;102026.31;1049711;28;20044;-81
2021/06/09 01:59:19;;;;;;;14.27;12.88;;;;;;;13.04;85.88;102026.97;1049025;28;20397;-81
2021/06/09 01:59:51;;;;;;;15.13;13.30;;;;;;;13.03;85.74;102022.63;1051560;28;20182;-82
2021/06/09 02:00:31;;;;;;;14.27;12.77;;;;;;;13.05;85.72;102020.97;1053767;28;20052;-82
2021/06/09 02:01:02;;;;;;;12.57;11.35;;;;;;;13.06;85.42;102030.53;1057622;28;20048;-81
2021/06/09 02:01:34;;;;;;;13.27;11.43;;;;;;;13.07;85.66;102025.34;1057277;28;20125;-82
2021/06/09 02:02:05;;;;;;;12.63;11.20;;;;;;;13.10;85.60;102025.41;1053259;28;20404;-82
2021/06/09 02:02:37;;;;;;;13.98;12.25;;;;;;;13.12;85.27;102022.88;1053152;28;20052;-82
2021/06/09 02:03:11;;;;;;;14.20;12.80;;;;;;;13.08;85.46;102023.63;1053144;28;20048;-82
2021/06/09 02:03:42;;;;;;;15.65;13.23;;;;;;;13.07;85.49;102017.56;1049736;28;20423;-82
2021/06/09 02:04:16;;;;;;;15.30;12.23;;;;;;;13.09;85.35;102020.19;1049026;28;20063;-82
2021/06/09 02:04:48;;;;;;;13.85;12.52;;;;;;;13.08;85.49;102023.63;1052206;28;20044;-83
2021/06/09 02:05:19;;;;;;;12.80;11.43;;;;;;;13.06;85.44;102026.19;1054052;28;20048;-82
2021/06/09 02:05:51;;;;;;;13.95;11.52;;;;;;;13.05;85.50;102024.44;1053862;28;20048;-82
2021/06/09 02:06:22;;;;;;;14.07;12.55;;;;;;;13.05;85.55;102023.56;1052958;28;20056;-81
2021/06/09 02:06:55;;;;;;;14.93;12.75;;;;;;;13.03;85.37;102026.09;1048765;28;20060;-82
2021/06/09 02:07:33;;;;;;;13.95;12.60;;;;;;;13.04;85.41;102025.25;1049730;28;20400;-82
2021/06/09 02:08:08;;;;;;;13.77;11.75;;;;;;;12.98;85.47;102020.81;1050424;28;20048;-82
2021/06/09 02:08:39;;;;;;;13.15;11.85;;;;;;;12.98;85.70;102026.00;1050884;28;20071;-80
2021/06/09 02:09:12;;;;;;;13.40;12.02;;;;;;;13.00;86.09;102026.06;1053087;28;20048;-82
2021/06/09 02:09:45;;;;;;;15.40;13.13;;;;;;;12.99;85.75;102021.72;1053939;28;20040;-82
2021/06/09 02:10:20;;;;;;;15.50;13.77;;;;;;;13.02;85.34;102028.69;1056731;28;20059;-82
2021/06/09 02:10:51;;;;;;;13.75;12.45;;;;;;;13.03;85.74;102020.03;1057240;28;20336;-82
2021/06/09 02:11:23;;;;;;;14.13;12.77;;;;;;;13.02;86.03;102018.28;1057299;28;20056;-81
2021/06/09 02:11:54;;;;;;;13.75;12.35;;;;;;;13.03;85.44;102020.03;1057304;28;20070;-82
2021/06/09 02:12:26;;;;;;;14.48;13.07;;;;;;;13.02;85.34;102023.47;1057332;28;20051;-82
2021/06/09 02:13:00;;;;;;;14.65;12.52;;;;;;;13.00;86.12;102018.25;1057181;28;20044;-82
2021/06/09 02:13:32;;;;;;;13.55;12.07;;;;;;;13.05;85.24;102026.16;1057165;28;20043;-82
2021/06/09 02:14:03;;;;;;;14.88;12.80;;;;;;;13.07;84.74;102017.56;1052972;28;20063;-81
2021/06/09 02:14:36;;;;;;;13.70;12.40;;;;;;;13.07;85.30;102025.34;1053781;28;20063;-82
2021/06/09 02:15:08;;;;;;;15.20;13.55;;;;;;;13.06;85.47;102020.13;1057188;28;20048;-82
2021/06/09 02:15:42;;;;;;;12.48;11.27;;;;;;;13.05;85.27;102023.56;1057251;28;20073;-82
2021/06/09 02:16:13;;;;;;;14.70;13.25;;;;;;;13.02;85.36;102021.75;1057111;28;20056;-82
2021/06/09 02:16:47;;;;;;;14.18;12.77;;;;;;;13.02;85.48;102020.88;1052985;28;20415;-81
2021/06/09 02:17:18;;;;;;;14.18;12.80;;;;;;;12.97;85.54;102021.66;1053887;28;20144;-83
2021/06/09 02:18:00;;;;;;;15.85;12.55;;;;;;;12.97;85.62;102026.84;1053023;28;20052;-82
2021/06/09 02:18:31;;;;;;;13.15;11.77;;;;;;;12.97;85.80;102025.97;1050838;28;20059;-81
2021/06/09 02:19:04;;;;;;;13.30;11.98;;;;;;;12.97;85.35;102024.25;1052919;28;20059;-81
2021/06/09 02:19:36;;;;;;;12.88;11.68;;;;;;;12.98;85.39;102025.13;1055193;28;20055;-82
2021/06/09 02:20:09;;;;;;;13.82;12.02;;;;;;;12.99;85.42;102024.31;1057299;28;20048;-82
2021/06/09 02:20:47;;;;;;;14.45;13.05;;;;;;;13.00;85.65;102023.47;1057019;28;20495;-82
2021/06/09 02:21:19;;;;;;;14.15;12.70;;;;;;;13.01;85.66;102017.41;1057225;28;20404;-82
2021/06/09 02:21:52;;;;;;;13.80;12.50;;;;;;;13.03;85.22;102014.84;1052842;28;20048;-81
2021/06/09 02:22:23;;;;;;;14.30;12.80;;;;;;;13.06;84.80;102020.13;1050121;28;20040;-80
2021/06/09 02:22:56;;;;;;;13.57;12.25;;;;;;;13.00;85.17;102015.66;1053178;28;20075;-81
2021/06/09 02:23:30;;;;;;;14.93;13.50;;;;;;;13.00;85.25;102016.53;1048750;28;20056;-80
2021/06/09 02:24:03;;;;;;;13.02;11.70;;;;;;;13.00;85.33;102015.66;1050020;28;20071;-81
2021/06/09 02:24:35;;;;;;;14.35;12.82;;;;;;;13.03;85.37;102020.91;1054168;28;20063;-81
2021/06/09 02:25:07;;;;;;;15.00;11.75;;;;;;;13.03;85.45;102020.91;1057259;28;20469;-81
2021/06/09 02:25:42;;;;;;;13.70;12.18;;;;;;;12.99;85.84;102021.72;1057371;27;20487;-82
2021/06/09 02:26:14;;;;;;;16.02;12.07;;;;;;;13.01;85.83;102017.41;1057158;28;20043;-81
2021/06/09 02:26:45;;;;;;;13.48;12.07;;;;;;;13.01;85.23;102017.41;1057201;28;20487;-82
2021/06/09 02:27:17;;;;;;;15.48;13.88;;;;;;;12.98;85.20;102020.81;1053085;28;20048;-81
2021/06/09 02:27:49;;;;;;;14.13;12.73;;;;;;;12.94;85.75;102016.41;1048728;28;20136;-82
2021/06/09 02:28:23;;;;;;;15.57;13.60;;;;;;;12.93;85.69;102011.13;1044735;28;20049;-81
2021/06/09 02:28:57;;;;;;;15.07;13.27;;;;;;;12.92;85.81;102017.19;1051097;28;20060;-81